Time;durP1;ratioP1;P1;durP2;ratioP2;P2;SDS_P1;SDS_P2;PMS_P1;PMS_P2;Temp;Humidity;BMP_temperature;BMP_pressure;BME280_temperature;BME280_humidity;BME280_pressure;Samples;Min_cycle;Max_cycle;Signal;HPM_P1;HPM_P2
2023/03/18 00:01:03;;;;;;;1.67;1.58;;;;;;;;;;5057474;28;20202;-85
2023/03/18 00:03:31;;;;;;;1.48;1.38;;;;;;;;;;5072715;28;20201;-86
2023/03/18 00:06:07;;;;;;;1.77;1.42;;;;;;;;;;5077763;28;20193;-88
2023/03/18 00:08:35;;;;;;;1.27;1.23;;;;;;;;;;5076130;28;20234;-87
2023/03/18 00:11:04;;;;;;;1.48;1.17;;;;;;;;;;5077702;28;20568;-88
2023/03/18 00:13:33;;;;;;;1.80;1.55;;;;;;;;;;5078268;28;20201;-87
2023/03/18 00:16:01;;;;;;;1.75;1.40;;;;;;;;;;5078092;28;20681;-87
2023/03/18 00:18:30;;;;;;;1.35;1.25;;;;;;;;;;5077063;28;20264;-87
2023/03/18 00:20:59;;;;;;;1.15;1.15;;;;;;;;;;5078183;28;20232;-87
2023/03/18 00:23:27;;;;;;;1.42;1.33;;;;;;;;;;5078498;28;20240;-87
2023/03/18 00:25:57;;;;;;;1.50;1.40;;;;;;;;;;5078574;28;20291;-86
2023/03/18 00:28:25;;;;;;;1.42;1.33;;;;;;;;;;5078373;28;20278;-87
2023/03/18 00:30:55;;;;;;;1.20;1.10;;;;;;;;;;5070545;28;20204;-87
2023/03/18 00:33:23;;;;;;;1.67;1.48;;;;;;;;;;5058367;28;20272;-88
2023/03/18 00:35:52;;;;;;;1.92;1.70;;;;;;;;;;5058084;28;20216;-87
2023/03/18 00:38:20;;;;;;;2.92;1.98;;;;;;;;;;5058180;28;20650;-88
2023/03/18 00:41:00;;;;;;;1.63;1.50;;;;;;;;;;5057798;28;20193;-88
2023/03/18 00:43:32;;;;;;;1.58;1.40;;;;;;;;;;5057905;28;20700;-87
2023/03/18 00:46:01;;;;;;;1.50;1.40;;;;;;;;;;5058291;28;20708;-88
2023/03/18 00:48:29;;;;;;;1.52;1.40;;;;;;;;;;5057637;28;20226;-87
2023/03/18 00:50:57;;;;;;;2.47;1.15;;;;;;;;;;5057925;28;20654;-88
2023/03/18 00:53:25;;;;;;;1.50;1.40;;;;;;;;;;5057898;28;20202;-87
2023/03/18 00:55:52;;;;;;;3.47;1.50;;;;;;;;;;5056492;28;20292;-86
2023/03/18 00:58:20;;;;;;;1.65;1.55;;;;;;;;;;5056457;28;20703;-87
2023/03/18 01:00:47;;;;;;;1.45;1.35;;;;;;;;;;5049228;28;20265;-88
2023/03/18 01:03:16;;;;;;;1.60;1.50;;;;;;;;;;5036268;28;20229;-88
2023/03/18 01:05:44;;;;;;;1.52;1.42;;;;;;;;;;5037033;28;20293;-87
2023/03/18 01:08:12;;;;;;;1.60;1.50;;;;;;;;;;5035466;28;20632;-86
2023/03/18 01:10:39;;;;;;;1.88;1.58;;;;;;;;;;5036373;28;20198;-87
2023/03/18 01:13:07;;;;;;;1.27;1.17;;;;;;;;;;5038014;28;20216;-88
2023/03/18 01:15:35;;;;;;;1.35;1.25;;;;;;;;;;5036439;28;20229;-87
2023/03/18 01:18:02;;;;;;;2.08;1.48;;;;;;;;;;5036948;28;20263;-86
2023/03/18 01:20:31;;;;;;;1.88;1.40;;;;;;;;;;5035541;28;20296;-87
2023/03/18 01:22:59;;;;;;;3.83;2.30;;;;;;;;;;5036315;28;20229;-86
2023/03/18 01:25:27;;;;;;;1.67;1.58;;;;;;;;;;5036044;28;20218;-87
2023/03/18 01:27:55;;;;;;;1.70;1.60;;;;;;;;;;5035939;28;20275;-87
2023/03/18 01:30:23;;;;;;;1.73;1.63;;;;;;;;;;5036031;28;20232;-87
2023/03/18 01:32:51;;;;;;;2.17;1.83;;;;;;;;;;5037048;28;20194;-87
2023/03/18 01:35:19;;;;;;;1.83;1.50;;;;;;;;;;5062754;22;20230;-87
2023/03/18 01:37:47;;;;;;;2.30;1.38;;;;;;;;;;5053276;28;20212;-84
2023/03/18 01:40:17;;;;;;;1.67;1.58;;;;;;;;;;5053534;28;20338;-82
2023/03/18 01:42:56;;;;;;;1.50;1.40;;;;;;;;;;5053231;28;20693;-84
2023/03/18 01:45:27;;;;;;;2.25;2.05;;;;;;;;;;5053590;28;20304;-83
2023/03/18 01:47:57;;;;;;;3.45;3.00;;;;;;;;;;5053453;28;20192;-84
2023/03/18 01:50:28;;;;;;;4.28;3.83;;;;;;;;;;5053125;28;20225;-84
2023/03/18 01:53:01;;;;;;;3.72;3.35;;;;;;;;;;5053351;28;20280;-84
2023/03/18 01:55:32;;;;;;;2.85;2.50;;;;;;;;;;5053122;28;20238;-84
2023/03/18 01:58:01;;;;;;;4.10;3.70;;;;;;;;;;5053311;28;20193;-84
2023/03/18 02:00:29;;;;;;;3.90;3.03;;;;;;;;;;5053078;28;20212;-84
2023/03/18 02:02:57;;;;;;;2.83;2.53;;;;;;;;;;5052965;28;20670;-84
2023/03/18 02:05:28;;;;;;;3.13;2.83;;;;;;;;;;5052896;28;20221;-84
2023/03/18 02:07:57;;;;;;;2.50;2.25;;;;;;;;;;5054175;28;20285;-84
2023/03/18 02:10:27;;;;;;;2.33;2.03;;;;;;;;;;5056949;28;20316;-85
2023/03/18 02:12:59;;;;;;;2.58;2.03;;;;;;;;;;5057016;28;20197;-85
2023/03/18 02:15:28;;;;;;;3.08;2.60;;;;;;;;;;5056807;28;20229;-85
2023/03/18 02:18:01;;;;;;;4.28;2.85;;;;;;;;;;5056652;28;20229;-84
2023/03/18 02:20:41;;;;;;;2.13;2.00;;;;;;;;;;5056349;28;20269;-85
2023/03/18 02:23:19;;;;;;;2.70;2.03;;;;;;;;;;5056643;28;20200;-85
2023/03/18 02:25:52;;;;;;;1.67;1.42;;;;;;;;;;5056629;28;20251;-85
2023/03/18 02:28:24;;;;;;;2.03;1.80;;;;;;;;;;5056518;28;20190;-85
2023/03/18 02:30:56;;;;;;;1.60;1.45;;;;;;;;;;5056081;28;20251;-85
2023/03/18 02:33:26;;;;;;;2.78;1.88;;;;;;;;;;5056091;28;20214;-85
2023/03/18 02:35:57;;;;;;;1.92;1.83;;;;;;;;;;5056312;28;20194;-85
2023/03/18 02:38:25;;;;;;;2.60;2.40;;;;;;;;;;5055892;28;20182;-85
2023/03/18 02:40:52;;;;;;;1.60;1.50;;;;;;;;;;5056119;28;20650;-84
2023/03/18 02:43:24;;;;;;;1.80;1.70;;;;;;;;;;5056354;28;20229;-85
2023/03/18 02:46:06;;;;;;;1.85;1.75;;;;;;;;;;5056411;28;20193;-85
2023/03/18 02:48:38;;;;;;;1.88;1.77;;;;;;;;;;5056249;28;20200;-85
2023/03/18 02:51:07;;;;;;;2.20;2.00;;;;;;;;;;5056070;28;20550;-85
2023/03/18 02:53:36;;;;;;;1.80;1.70;;;;;;;;;;5055922;28;20226;-85
2023/03/18 02:56:05;;;;;;;3.15;2.70;;;;;;;;;;5056414;28;20194;-85
2023/03/18 02:58:35;;;;;;;2.50;2.17;;;;;;;;;;5056264;28;20208;-85
2023/03/18 03:01:02;;;;;;;3.72;2.65;;;;;;;;;;5056048;28;20259;-85
2023/03/18 03:03:30;;;;;;;2.97;2.67;;;;;;;;;;5055643;28;20232;-86
2023/03/18 03:05:57;;;;;;;2.85;2.55;;;;;;;;;;5055769;28;20626;-85
2023/03/18 03:08:25;;;;;;;2.55;2.30;;;;;;;;;;5055344;28;20201;-85
2023/03/18 03:10:53;;;;;;;3.03;1.95;;;;;;;;;;5055410;28;20666;-85
2023/03/18 03:13:22;;;;;;;3.08;2.78;;;;;;;;;;5055062;28;20200;-85
2023/03/18 03:15:51;;;;;;;2.22;1.73;;;;;;;;;;5055304;28;20282;-85
2023/03/18 03:18:19;;;;;;;2.08;1.88;;;;;;;;;;5055306;28;20212;-86
2023/03/18 03:20:47;;;;;;;2.28;2.08;;;;;;;;;;5054430;28;20229;-85
2023/03/18 03:23:16;;;;;;;2.30;2.10;;;;;;;;;;5055334;28;20193;-85
2023/03/18 03:25:44;;;;;;;2.28;2.08;;;;;;;;;;5054797;28;20653;-85
2023/03/18 03:28:13;;;;;;;1.90;1.80;;;;;;;;;;5055401;28;20581;-85
2023/03/18 03:30:41;;;;;;;1.75;1.65;;;;;;;;;;5054943;28;20232;-85
2023/03/18 03:33:10;;;;;;;3.63;2.28;;;;;;;;;;5055029;28;20296;-85
2023/03/18 03:35:38;;;;;;;2.20;2.10;;;;;;;;;;5054768;28;20226;-85
2023/03/18 03:38:06;;;;;;;2.13;1.92;;;;;;;;;;5055316;28;20205;-85
2023/03/18 03:40:34;;;;;;;2.50;2.30;;;;;;;;;;5055198;28;20229;-85
2023/03/18 03:43:02;;;;;;;3.42;2.60;;;;;;;;;;5055153;28;20284;-85
2023/03/18 03:45:30;;;;;;;3.20;2.15;;;;;;;;;;5054854;28;20584;-85
2023/03/18 03:47:57;;;;;;;2.10;2.00;;;;;;;;;;5054847;28;20225;-85
2023/03/18 03:50:27;;;;;;;2.78;2.20;;;;;;;;;;5054527;28;20222;-85
2023/03/18 03:52:54;;;;;;;2.25;2.05;;;;;;;;;;5054998;28;20309;-85
2023/03/18 03:55:23;;;;;;;1.95;1.85;;;;;;;;;;5054772;28;20631;-84
2023/03/18 03:57:50;;;;;;;1.88;1.77;;;;;;;;;;5054269;28;20289;-85
2023/03/18 04:00:21;;;;;;;2.88;2.35;;;;;;;;;;5054466;28;20198;-85
2023/03/18 04:02:50;;;;;;;2.28;2.00;;;;;;;;;;5054620;28;20280;-85
2023/03/18 04:05:20;;;;;;;4.63;2.10;;;;;;;;;;5054882;28;20726;-85
2023/03/18 04:07:50;;;;;;;3.17;2.10;;;;;;;;;;5054528;28;20289;-85
2023/03/18 04:10:20;;;;;;;2.85;2.10;;;;;;;;;;5054281;28;20197;-85
2023/03/18 04:12:48;;;;;;;2.15;1.98;;;;;;;;;;5054252;28;20202;-85
2023/03/18 04:15:18;;;;;;;2.00;1.90;;;;;;;;;;5054474;28;20240;-85
2023/03/18 04:17:46;;;;;;;1.83;1.73;;;;;;;;;;5054612;28;20555;-85
2023/03/18 04:20:15;;;;;;;2.22;1.80;;;;;;;;;;5054178;28;20637;-85
2023/03/18 04:22:43;;;;;;;3.58;2.33;;;;;;;;;;5054472;28;20268;-85
2023/03/18 04:25:13;;;;;;;2.50;2.30;;;;;;;;;;5054120;28;20678;-85
2023/03/18 04:27:41;;;;;;;5.15;2.05;;;;;;;;;;5053966;28;20206;-85
2023/03/18 04:30:11;;;;;;;4.45;2.63;;;;;;;;;;5054074;28;20202;-85
2023/03/18 04:32:39;;;;;;;2.20;1.98;;;;;;;;;;5054630;28;20198;-85
2023/03/18 04:35:08;;;;;;;3.05;2.30;;;;;;;;;;5053576;28;20316;-85
2023/03/18 04:37:36;;;;;;;2.90;2.70;;;;;;;;;;5053869;28;20201;-84
2023/03/18 04:40:05;;;;;;;3.17;2.45;;;;;;;;;;5053967;28;20213;-85
2023/03/18 04:42:34;;;;;;;2.90;2.60;;;;;;;;;;5053654;28;20201;-86
2023/03/18 04:45:04;;;;;;;3.55;2.70;;;;;;;;;;5053619;28;20213;-85
2023/03/18 04:47:33;;;;;;;2.80;1.98;;;;;;;;;;5053918;28;20229;-85
2023/03/18 04:50:01;;;;;;;2.78;2.30;;;;;;;;;;5053733;28;20208;-85
2023/03/18 04:52:28;;;;;;;3.60;3.30;;;;;;;;;;5053433;28;20221;-85
2023/03/18 04:54:56;;;;;;;2.40;2.20;;;;;;;;;;5053497;28;20359;-84
2023/03/18 04:57:24;;;;;;;2.50;2.28;;;;;;;;;;5053415;28;20202;-85
2023/03/18 04:59:53;;;;;;;2.28;2.08;;;;;;;;;;5053497;28;20244;-85
2023/03/18 05:02:20;;;;;;;2.58;2.10;;;;;;;;;;5053450;28;20288;-85
2023/03/18 05:04:48;;;;;;;2.50;2.30;;;;;;;;;;5053271;28;20649;-85
2023/03/18 05:07:17;;;;;;;2.65;2.45;;;;;;;;;;5053632;28;20212;-84
2023/03/18 05:09:44;;;;;;;2.85;2.50;;;;;;;;;;5053290;28;20197;-85
2023/03/18 05:12:14;;;;;;;3.13;2.65;;;;;;;;;;5053368;28;20231;-85
2023/03/18 05:14:42;;;;;;;2.03;1.90;;;;;;;;;;5053260;28;20217;-84
2023/03/18 05:17:15;;;;;;;1.67;1.58;;;;;;;;;;5053096;28;20256;-85
2023/03/18 05:19:44;;;;;;;2.50;2.30;;;;;;;;;;5053616;28;20193;-84
2023/03/18 05:22:12;;;;;;;2.08;1.98;;;;;;;;;;5053262;28;20206;-85
2023/03/18 05:24:39;;;;;;;2.75;2.35;;;;;;;;;;5053343;28;20257;-85
2023/03/18 05:27:07;;;;;;;2.05;1.80;;;;;;;;;;5053197;28;20197;-84
2023/03/18 05:29:35;;;;;;;3.45;2.35;;;;;;;;;;5053268;28;20206;-86
2023/03/18 05:32:03;;;;;;;2.42;1.92;;;;;;;;;;5052797;28;20597;-85
2023/03/18 05:34:31;;;;;;;2.53;2.33;;;;;;;;;;5053275;28;20252;-84
2023/03/18 05:36:59;;;;;;;3.83;2.63;;;;;;;;;;5053159;28;20288;-87
2023/03/18 05:39:27;;;;;;;2.15;1.85;;;;;;;;;;5052899;28;20292;-84
2023/03/18 05:41:54;;;;;;;2.35;1.95;;;;;;;;;;5053120;28;20596;-86
2023/03/18 05:44:22;;;;;;;3.20;2.30;;;;;;;;;;5053036;28;20298;-86
2023/03/18 05:46:51;;;;;;;1.95;1.70;;;;;;;;;;5053051;28;20285;-86
2023/03/18 05:49:19;;;;;;;2.50;2.30;;;;;;;;;;5053336;28;20428;-85
2023/03/18 05:51:48;;;;;;;2.20;2.00;;;;;;;;;;5053280;28;20342;-85
2023/03/18 05:54:16;;;;;;;3.42;2.25;;;;;;;;;;5053343;28;20690;-86
2023/03/18 05:56:44;;;;;;;2.95;2.65;;;;;;;;;;5053401;28;20205;-86
2023/03/18 05:59:12;;;;;;;2.47;2.28;;;;;;;;;;5053318;28;20255;-87
2023/03/18 06:01:41;;;;;;;3.50;2.28;;;;;;;;;;5053352;28;20204;-87
2023/03/18 06:04:09;;;;;;;2.55;1.90;;;;;;;;;;5053494;28;20217;-87
2023/03/18 06:06:39;;;;;;;2.42;2.22;;;;;;;;;;5052644;28;20285;-86
2023/03/18 06:09:08;;;;;;;2.53;2.33;;;;;;;;;;5053168;28;20236;-86
2023/03/18 06:11:36;;;;;;;3.70;2.45;;;;;;;;;;5052683;28;20231;-86
2023/03/18 06:14:05;;;;;;;2.85;2.10;;;;;;;;;;5052847;28;20253;-86
2023/03/18 06:16:32;;;;;;;2.80;2.50;;;;;;;;;;5052725;28;20236;-86
2023/03/18 06:19:01;;;;;;;2.80;2.53;;;;;;;;;;5053139;28;20595;-86
2023/03/18 06:21:30;;;;;;;3.35;2.10;;;;;;;;;;5052965;28;20220;-86
2023/03/18 06:23:58;;;;;;;2.70;2.40;;;;;;;;;;5052875;28;20233;-86
2023/03/18 06:26:27;;;;;;;3.67;2.92;;;;;;;;;;5053200;28;20304;-86
2023/03/18 06:28:55;;;;;;;2.35;2.13;;;;;;;;;;5052978;28;20726;-86
2023/03/18 06:31:22;;;;;;;2.25;2.05;;;;;;;;;;5052688;28;20210;-86
2023/03/18 06:33:50;;;;;;;3.33;2.50;;;;;;;;;;5052741;28;20264;-86
2023/03/18 06:36:18;;;;;;;4.63;2.20;;;;;;;;;;5052701;28;20189;-86
2023/03/18 06:38:46;;;;;;;2.88;1.70;;;;;;;;;;5053137;28;20201;-85
2023/03/18 06:41:15;;;;;;;2.42;1.95;;;;;;;;;;5052533;28;20230;-87
2023/03/18 06:43:46;;;;;;;1.85;1.75;;;;;;;;;;5052822;28;20674;-86
2023/03/18 06:46:14;;;;;;;2.42;1.95;;;;;;;;;;5052584;28;20631;-86
2023/03/18 06:48:41;;;;;;;2.80;2.58;;;;;;;;;;5052784;28;20229;-86
2023/03/18 06:51:10;;;;;;;4.78;2.60;;;;;;;;;;5052794;28;20240;-85
2023/03/18 06:53:37;;;;;;;1.95;1.75;;;;;;;;;;5052075;28;20226;-86
2023/03/18 06:56:06;;;;;;;2.95;2.22;;;;;;;;;;5055389;28;20233;-87
2023/03/18 06:58:34;;;;;;;3.50;2.00;;;;;;;;;;5056194;28;20568;-86
2023/03/18 07:01:03;;;;;;;1.80;1.70;;;;;;;;;;5055310;28;20292;-87
2023/03/18 07:03:31;;;;;;;2.13;1.90;;;;;;;;;;5054898;28;20658;-84
2023/03/18 07:06:00;;;;;;;2.53;2.17;;;;;;;;;;5055910;28;20201;-86
2023/03/18 07:08:28;;;;;;;2.10;2.00;;;;;;;;;;5056120;28;20201;-86
2023/03/18 07:10:55;;;;;;;3.25;2.45;;;;;;;;;;5056475;28;20257;-86
2023/03/18 07:13:23;;;;;;;2.50;1.98;;;;;;;;;;5055423;28;20221;-86
2023/03/18 07:15:51;;;;;;;2.72;2.40;;;;;;;;;;5055222;28;20197;-86
2023/03/18 07:18:20;;;;;;;3.38;3.08;;;;;;;;;;5055438;28;20208;-86
2023/03/18 07:20:49;;;;;;;3.10;2.08;;;;;;;;;;5055513;28;20200;-86
2023/03/18 07:23:16;;;;;;;2.50;2.28;;;;;;;;;;5055407;28;20178;-86
2023/03/18 07:25:45;;;;;;;2.33;2.13;;;;;;;;;;5055285;28;20564;-86
2023/03/18 07:28:13;;;;;;;3.58;3.28;;;;;;;;;;5055303;28;20255;-86
2023/03/18 07:30:40;;;;;;;3.92;1.90;;;;;;;;;;5055691;28;20202;-85
2023/03/18 07:33:08;;;;;;;2.00;1.58;;;;;;;;;;5055101;28;20312;-85
2023/03/18 07:35:39;;;;;;;2.63;2.42;;;;;;;;;;5055823;28;20295;-86
2023/03/18 07:38:08;;;;;;;4.00;2.70;;;;;;;;;;5055570;28;20178;-87
2023/03/18 07:40:36;;;;;;;2.00;1.80;;;;;;;;;;5055529;28;20206;-86
2023/03/18 07:43:04;;;;;;;3.08;2.00;;;;;;;;;;5055443;28;20244;-86
2023/03/18 07:45:33;;;;;;;2.63;2.25;;;;;;;;;;5055105;28;20757;-86
2023/03/18 07:48:01;;;;;;;1.58;1.48;;;;;;;;;;5055312;28;20252;-87
2023/03/18 07:50:28;;;;;;;1.98;1.88;;;;;;;;;;5055077;28;20281;-86
2023/03/18 07:52:58;;;;;;;2.47;2.28;;;;;;;;;;5054593;28;20286;-86
2023/03/18 07:55:26;;;;;;;2.88;2.10;;;;;;;;;;5055554;28;20678;-87
2023/03/18 07:57:53;;;;;;;2.47;2.17;;;;;;;;;;5055282;28;20212;-86
2023/03/18 08:00:22;;;;;;;2.53;2.33;;;;;;;;;;5054937;28;20643;-86
2023/03/18 08:02:50;;;;;;;2.08;1.92;;;;;;;;;;5054506;28;20248;-87
2023/03/18 08:05:18;;;;;;;1.63;1.52;;;;;;;;;;5054412;28;20734;-86
2023/03/18 08:07:45;;;;;;;2.15;1.92;;;;;;;;;;5054877;28;20605;-87
2023/03/18 08:10:14;;;;;;;2.03;1.90;;;;;;;;;;5054792;28;20281;-86
2023/03/18 08:12:42;;;;;;;4.95;2.30;;;;;;;;;;5054605;28;20201;-87
2023/03/18 08:15:11;;;;;;;3.55;2.15;;;;;;;;;;5054549;28;20228;-87
2023/03/18 08:17:38;;;;;;;2.17;1.92;;;;;;;;;;5054734;28;20197;-86
2023/03/18 08:20:08;;;;;;;3.53;2.10;;;;;;;;;;5054536;28;20229;-87
2023/03/18 08:22:35;;;;;;;4.28;2.40;;;;;;;;;;5054697;28;20650;-87
2023/03/18 08:25:03;;;;;;;2.63;2.10;;;;;;;;;;5054266;28;20213;-87
2023/03/18 08:27:32;;;;;;;1.92;1.83;;;;;;;;;;5054141;28;20304;-86
2023/03/18 08:29:59;;;;;;;1.67;1.58;;;;;;;;;;5054224;28;20283;-87
2023/03/18 08:32:27;;;;;;;2.00;1.90;;;;;;;;;;5054480;28;20244;-87
2023/03/18 08:34:55;;;;;;;2.33;2.13;;;;;;;;;;5053875;28;20236;-86
2023/03/18 08:37:23;;;;;;;1.92;1.80;;;;;;;;;;5054001;28;20202;-86
2023/03/18 08:39:50;;;;;;;1.95;1.85;;;;;;;;;;5054405;28;20701;-87
2023/03/18 08:42:18;;;;;;;3.30;1.88;;;;;;;;;;5054196;28;20197;-86
2023/03/18 08:44:47;;;;;;;2.25;2.05;;;;;;;;;;5054034;28;20653;-87
2023/03/18 08:47:15;;;;;;;2.65;2.47;;;;;;;;;;5054219;28;20612;-87
2023/03/18 08:49:43;;;;;;;2.20;2.00;;;;;;;;;;5054349;28;20197;-86
2023/03/18 08:52:11;;;;;;;3.53;2.67;;;;;;;;;;5054159;28;20202;-87
2023/03/18 08:54:38;;;;;;;2.58;2.22;;;;;;;;;;5053752;28;20305;-87
2023/03/18 08:57:06;;;;;;;2.97;2.03;;;;;;;;;;5053715;28;20208;-87
2023/03/18 08:59:33;;;;;;;2.80;2.15;;;;;;;;;;5054003;28;20240;-87
2023/03/18 09:02:03;;;;;;;4.10;2.28;;;;;;;;;;5053914;28;20210;-86
2023/03/18 09:04:31;;;;;;;1.70;1.60;;;;;;;;;;5053959;28;20257;-87
2023/03/18 09:07:00;;;;;;;1.88;1.77;;;;;;;;;;5053602;28;20201;-87
2023/03/18 09:09:28;;;;;;;1.92;1.55;;;;;;;;;;5053830;28;20554;-86
2023/03/18 09:11:55;;;;;;;1.92;1.83;;;;;;;;;;5053664;28;20200;-87
2023/03/18 09:14:23;;;;;;;2.30;2.10;;;;;;;;;;5052967;28;20225;-87
2023/03/18 09:16:50;;;;;;;2.22;1.85;;;;;;;;;;5053145;28;20213;-87
2023/03/18 09:19:19;;;;;;;2.53;1.92;;;;;;;;;;5053445;28;20754;-86
2023/03/18 09:21:47;;;;;;;3.08;2.00;;;;;;;;;;5053445;28;20207;-87
2023/03/18 09:24:14;;;;;;;2.05;1.85;;;;;;;;;;5053215;28;20260;-87
2023/03/18 09:26:42;;;;;;;2.50;2.05;;;;;;;;;;5053306;28;20681;-87
2023/03/18 09:29:10;;;;;;;3.90;2.30;;;;;;;;;;5053193;28;20217;-84
2023/03/18 09:31:38;;;;;;;2.03;1.90;;;;;;;;;;5053713;28;20725;-86
2023/03/18 09:34:05;;;;;;;2.47;2.28;;;;;;;;;;5053062;28;20260;-85
2023/03/18 09:36:34;;;;;;;2.53;2.33;;;;;;;;;;5053410;28;20208;-86
2023/03/18 09:39:02;;;;;;;2.22;2.05;;;;;;;;;;5053780;28;20197;-84
2023/03/18 09:41:43;;;;;;;1.60;1.50;;;;;;;;;;5053420;28;20834;-86
2023/03/18 09:44:17;;;;;;;2.70;1.55;;;;;;;;;;5053061;28;20590;-84
2023/03/18 09:47:00;;;;;;;1.80;1.70;;;;;;;;;;5053070;28;20200;-87
2023/03/18 09:49:50;;;;;;;1.60;1.48;;;;;;;;;;5053196;28;20598;-85
2023/03/18 09:52:23;;;;;;;1.83;1.65;;;;;;;;;;5036298;28;20237;-85
2023/03/18 09:54:57;;;;;;;2.67;1.67;;;;;;;;;;5053208;28;20226;-85
2023/03/18 09:57:27;;;;;;;2.25;2.05;;;;;;;;;;5053381;28;20631;-86
2023/03/18 10:00:00;;;;;;;2.85;1.92;;;;;;;;;;5053181;28;20692;-85
2023/03/18 10:02:36;;;;;;;1.70;1.60;;;;;;;;;;5053423;28;20193;-85
2023/03/18 10:05:09;;;;;;;4.07;1.90;;;;;;;;;;5053054;28;20218;-85
2023/03/18 10:07:41;;;;;;;1.80;1.70;;;;;;;;;;5053303;28;20196;-85
2023/03/18 10:10:12;;;;;;;2.00;1.90;;;;;;;;;;5054368;28;20191;-84
2023/03/18 10:12:44;;;;;;;1.70;1.33;;;;;;;;;;5053037;28;20208;-85
2023/03/18 10:15:16;;;;;;;1.63;1.52;;;;;;;;;;5054248;28;20331;-85
2023/03/18 10:17:49;;;;;;;1.95;1.70;;;;;;;;;;5052788;28;20182;-85
2023/03/18 10:20:20;;;;;;;1.75;1.65;;;;;;;;;;5052818;28;20190;-86
2023/03/18 10:22:58;;;;;;;1.50;1.40;;;;;;;;;;5053097;28;20251;-85
2023/03/18 10:25:29;;;;;;;1.52;1.42;;;;;;;;;;5052538;28;20232;-85
2023/03/18 10:28:17;;;;;;;1.95;1.85;;;;;;;;;;5053139;28;20620;-85
2023/03/18 10:30:54;;;;;;;4.10;1.58;;;;;;;;;;5056948;28;20200;-87
2023/03/18 10:33:32;;;;;;;1.70;1.60;;;;;;;;;;5056732;28;20190;-85
2023/03/18 10:36:08;;;;;;;2.28;1.75;;;;;;;;;;5056380;28;20216;-85
2023/03/18 10:38:39;;;;;;;1.67;1.58;;;;;;;;;;5056442;28;20277;-85
2023/03/18 10:41:17;;;;;;;2.30;1.38;;;;;;;;;;5056834;28;20186;-85
2023/03/18 10:43:46;;;;;;;1.30;1.20;;;;;;;;;;5056733;28;20221;-85
2023/03/18 10:46:16;;;;;;;1.00;1.00;;;;;;;;;;5056907;28;20194;-85
2023/03/18 10:48:48;;;;;;;2.30;1.40;;;;;;;;;;5056531;28;20202;-85
2023/03/18 10:51:21;;;;;;;3.60;1.63;;;;;;;;;;5057138;28;20189;-85
2023/03/18 10:53:57;;;;;;;2.60;2.40;;;;;;;;;;5057922;28;20591;-85
2023/03/18 10:56:26;;;;;;;1.40;1.30;;;;;;;;;;5057408;28;20217;-85
2023/03/18 10:58:53;;;;;;;1.98;1.38;;;;;;;;;;5057125;28;20603;-85
2023/03/18 11:01:23;;;;;;;2.80;1.60;;;;;;;;;;5057235;28;20292;-85
2023/03/18 11:03:54;;;;;;;2.22;2.03;;;;;;;;;;5056427;28;20604;-85
2023/03/18 11:06:27;;;;;;;1.60;1.50;;;;;;;;;;5056539;28;20564;-85
2023/03/18 11:09:05;;;;;;;1.55;1.23;;;;;;;;;;5057425;28;20221;-85
2023/03/18 11:11:35;;;;;;;1.77;1.60;;;;;;;;;;5056223;28;20248;-85
2023/03/18 11:14:05;;;;;;;0.88;0.88;;;;;;;;;;5057211;28;20308;-84
2023/03/18 11:16:41;;;;;;;1.70;1.60;;;;;;;;;;5057100;28;20228;-84
2023/03/18 11:19:28;;;;;;;1.88;1.05;;;;;;;;;;5057803;28;20205;-85
2023/03/18 11:22:21;;;;;;;1.15;1.13;;;;;;;;;;5057177;28;20223;-84
2023/03/18 11:25:04;;;;;;;2.53;2.15;;;;;;;;;;5058014;28;20240;-84
2023/03/18 11:27:44;;;;;;;1.75;1.60;;;;;;;;;;5058572;28;20189;-86
2023/03/18 11:30:23;;;;;;;1.50;1.40;;;;;;;;;;5056583;28;20199;-85
2023/03/18 11:32:54;;;;;;;1.92;1.40;;;;;;;;;;5056755;28;20201;-85
2023/03/18 11:35:25;;;;;;;1.13;1.10;;;;;;;;;;5056555;28;20616;-85
2023/03/18 11:37:52;;;;;;;1.52;1.25;;;;;;;;;;5057852;28;20189;-83
2023/03/18 11:40:26;;;;;;;1.42;1.30;;;;;;;;;;5056374;28;20211;-85
2023/03/18 11:42:59;;;;;;;2.28;0.90;;;;;;;;;;5056990;28;20205;-85
2023/03/18 11:45:44;;;;;;;1.27;1.17;;;;;;;;;;5056817;28;20321;-84
2023/03/18 11:48:18;;;;;;;2.25;2.13;;;;;;;;;;5056695;28;20250;-84
2023/03/18 11:51:24;;;;;;;1.20;1.10;;;;;;;;;;5056897;28;20197;-85
2023/03/18 11:54:10;;;;;;;2.10;1.27;;;;;;;;;;5055205;28;20236;-86
2023/03/18 11:56:45;;;;;;;3.17;2.40;;;;;;;;;;5055100;28;20589;-85
2023/03/18 11:59:36;;;;;;;1.73;1.63;;;;;;;;;;5055343;28;20197;-86
2023/03/18 12:02:41;;;;;;;1.30;1.20;;;;;;;;;;5055222;28;20252;-85
2023/03/18 12:05:47;;;;;;;2.15;1.30;;;;;;;;;;5054976;28;20218;-86
2023/03/18 12:08:25;;;;;;;3.38;1.40;;;;;;;;;;5044737;28;20201;-86
2023/03/18 12:11:05;;;;;;;1.48;1.38;;;;;;;;;;5054658;28;20276;-85
2023/03/18 12:13:43;;;;;;;1.90;1.52;;;;;;;;;;5055052;28;20607;-86
2023/03/18 12:16:19;;;;;;;1.58;1.20;;;;;;;;;;5054924;28;20292;-86
2023/03/18 12:19:04;;;;;;;1.88;1.40;;;;;;;;;;5054515;28;20371;-86
2023/03/18 12:21:51;;;;;;;1.27;1.20;;;;;;;;;;5054791;28;20205;-85
2023/03/18 12:24:46;;;;;;;1.00;0.98;;;;;;;;;;5054809;28;20308;-85
2023/03/18 12:27:20;;;;;;;1.33;1.10;;;;;;;;;;5054742;28;20205;-84
2023/03/18 12:30:14;;;;;;;1.85;1.60;;;;;;;;;;5058851;28;20190;-88
2023/03/18 12:32:44;;;;;;;3.58;2.80;;;;;;;;;;5056559;28;20193;-84
2023/03/18 12:35:37;;;;;;;2.60;1.92;;;;;;;;;;5057676;28;20255;-84
2023/03/18 12:38:38;;;;;;;4.07;2.80;;;;;;;;;;5058243;28;20201;-84
2023/03/18 12:41:10;;;;;;;1.50;1.40;;;;;;;;;;5057840;28;20197;-84
2023/03/18 12:43:51;;;;;;;1.50;1.20;;;;;;;;;;5057135;28;20228;-85
2023/03/18 12:46:28;;;;;;;1.33;1.23;;;;;;;;;;5057809;28;20185;-84
2023/03/18 12:49:02;;;;;;;2.45;2.25;;;;;;;;;;5057087;28;20658;-84
2023/03/18 12:51:34;;;;;;;3.00;2.15;;;;;;;;;;5056463;28;20181;-85
2023/03/18 12:54:10;;;;;;;1.90;1.40;;;;;;;;;;5054225;28;20221;-85
2023/03/18 12:56:42;;;;;;;1.55;1.20;;;;;;;;;;5055052;28;20209;-84
2023/03/18 12:59:15;;;;;;;1.70;1.23;;;;;;;;;;5054773;28;20611;-84
2023/03/18 13:01:53;;;;;;;1.30;1.20;;;;;;;;;;5054952;28;20208;-84
2023/03/18 13:04:23;;;;;;;1.63;1.20;;;;;;;;;;5055300;28;20304;-85
2023/03/18 13:06:56;;;;;;;1.38;1.23;;;;;;;;;;5054859;28;20190;-84
2023/03/18 13:09:27;;;;;;;1.02;1.02;;;;;;;;;;5055027;28;20182;-85
2023/03/18 13:12:08;;;;;;;1.50;1.40;;;;;;;;;;5054732;28;20272;-84
2023/03/18 13:14:51;;;;;;;1.10;1.10;;;;;;;;;;5054832;28;20221;-84
2023/03/18 13:17:24;;;;;;;1.92;1.63;;;;;;;;;;5054457;28;20205;-84
2023/03/18 13:19:52;;;;;;;1.73;1.27;;;;;;;;;;5054459;28;20548;-85
2023/03/18 13:22:52;;;;;;;2.22;1.67;;;;;;;;;;5054551;28;20233;-85
2023/03/18 13:25:32;;;;;;;2.70;1.23;;;;;;;;;;5054319;28;20570;-84
2023/03/18 13:28:24;;;;;;;2.05;1.38;;;;;;;;;;5054077;28;20190;-85
2023/03/18 13:31:04;;;;;;;1.48;1.30;;;;;;;;;;5054226;28;20217;-84
2023/03/18 13:34:25;;;;;;;1.35;1.25;;;;;;;;;;5053978;28;20190;-85
2023/03/18 13:37:30;;;;;;;1.13;1.00;;;;;;;;;;5037395;28;20224;-85
2023/03/18 13:40:38;;;;;;;2.20;1.17;;;;;;;;;;5054533;28;20194;-85
2023/03/18 13:43:09;;;;;;;1.50;0.82;;;;;;;;;;5038918;28;20251;-85
2023/03/18 13:45:40;;;;;;;1.20;1.20;;;;;;;;;;5054291;28;20312;-84
2023/03/18 13:48:10;;;;;;;1.00;1.00;;;;;;;;;;5055181;28;20217;-83
2023/03/18 13:50:42;;;;;;;1.35;1.13;;;;;;;;;;5054521;28;20190;-84
2023/03/18 13:53:23;;;;;;;1.45;1.20;;;;;;;;;;5054737;28;20189;-84
2023/03/18 13:56:02;;;;;;;1.55;1.15;;;;;;;;;;5054212;28;20210;-84
2023/03/18 13:58:35;;;;;;;1.42;1.33;;;;;;;;;;5053579;28;20205;-84
2023/03/18 14:01:27;;;;;;;2.67;1.48;;;;;;;;;;5053851;28;20272;-84
2023/03/18 14:04:01;;;;;;;1.02;1.00;;;;;;;;;;5055322;28;20218;-84
2023/03/18 14:06:55;;;;;;;2.08;1.52;;;;;;;;;;5058003;28;20182;-85
2023/03/18 14:09:31;;;;;;;1.25;1.15;;;;;;;;;;5024397;28;20209;-84
2023/03/18 14:12:17;;;;;;;2.80;2.33;;;;;;;;;;5056660;28;20650;-84
2023/03/18 14:14:57;;;;;;;1.92;1.10;;;;;;;;;;5056945;28;20224;-84
2023/03/18 14:17:44;;;;;;;1.20;1.10;;;;;;;;;;5056868;28;20217;-84
2023/03/18 14:20:37;;;;;;;1.20;1.10;;;;;;;;;;5055989;28;20206;-84
2023/03/18 14:23:34;;;;;;;1.60;1.50;;;;;;;;;;5056460;28;20549;-84
2023/03/18 14:26:04;;;;;;;1.05;1.02;;;;;;;;;;5036571;28;20643;-84
2023/03/18 14:28:42;;;;;;;1.50;1.05;;;;;;;;;;5035994;28;20193;-84
2023/03/18 14:31:33;;;;;;;1.10;1.05;;;;;;;;;;5045513;28;20205;-84
2023/03/18 14:34:21;;;;;;;4.35;1.52;;;;;;;;;;5055395;28;20229;-84
2023/03/18 14:37:28;;;;;;;1.58;1.48;;;;;;;;;;5055199;28;20304;-84
2023/03/18 14:40:02;;;;;;;1.20;1.10;;;;;;;;;;5055458;28;20190;-84
2023/03/18 14:42:44;;;;;;;2.00;0.77;;;;;;;;;;5055794;28;20790;-84
2023/03/18 14:45:20;;;;;;;1.10;1.00;;;;;;;;;;5055770;28;20289;-84
2023/03/18 14:47:51;;;;;;;0.80;0.80;;;;;;;;;;5055411;28;20276;-84
2023/03/18 14:50:29;;;;;;;1.33;1.13;;;;;;;;;;5055324;28;20233;-85
2023/03/18 14:53:02;;;;;;;0.77;0.77;;;;;;;;;;5055801;28;20280;-84
2023/03/18 14:55:34;;;;;;;1.10;1.10;;;;;;;;;;5055638;28;20236;-84
2023/03/18 14:58:02;;;;;;;1.48;0.95;;;;;;;;;;5055613;28;20206;-85
2023/03/18 15:00:33;;;;;;;1.55;1.13;;;;;;;;;;5055746;28;20209;-84
2023/03/18 15:03:03;;;;;;;0.73;0.73;;;;;;;;;;5056171;28;20221;-85
2023/03/18 15:05:35;;;;;;;1.55;1.00;;;;;;;;;;5055827;28;20300;-86
2023/03/18 15:08:07;;;;;;;1.00;0.90;;;;;;;;;;5055215;28;20296;-85
2023/03/18 15:10:37;;;;;;;0.98;0.98;;;;;;;;;;5055819;28;20240;-85
2023/03/18 15:13:08;;;;;;;0.95;0.90;;;;;;;;;;5055938;28;20654;-85